Absecon Highlands, New Jersey
Current Conditions -  °F | °C
As of 12:54 PM on Friday 28 Nov 2014 (Local Time) from KACY Reporting Station
Overcast Overcast  
Wind Chill: 29°   Ceiling: 5000
Heat Index: 38°   Visibility: 10mi
Dew Point: 19°   Wind: 15mph
Humidity: 47%   Direction: 320°NW
Pressure: 30.19"   Gusts: NA
Location:  39.4315°N, 74.5003°W
Report Text: KACY 281754Z AUTO 32013KT 10SM OVC050 03/M07 A3019 RMK AO2 SLP224 T00331072 10050 21011 56010 TSNO
Loading
Personal Weather Stations






























Interactive Weather Map New forecast layout! Learn more

10-Day Weather Forecast

Advertisements
Track Severe Weather on mobile